Etusivu
METAR-TAF:

METAR-TAF

Lentoasemat :

Antwerpenin kansainvälinen lentoasema

Antwerpen, Belgia

Leveyspiiri: 51-12N, Pituuspiiri: 004-28E, korkeus merenpinnasta: 12 m

Tämänhetkinen sää

Tämä raportti tehtiin 12 minuuttia sitten, kello 05.20 UTC
Tuuli 2 kn idästä
Lämpötila 6°C
Kosteus 75%
Ilmanpaine 1029 hPa
Näkyvyys: 4500 m
usvaa

METAR: EBAW 210520Z 08002KT 4500 HZ NSC 06/02 Q1029 TEMPO 2500 BR

Aika: 07:32 (05:32 UTC)

Sääennuste

Tämä raportti tehtiin 3 tuntia ja 22 minuuttia sitten, kello 02.10 UTC
Ennuste voimassa 21. päivästä klo 03 UTC - 21. päivään klo 12 UTC
Tuuli 2 kn idästä/kaakosta
Näkyvyys: 2000 m
utua
Todennäköisyys 40% :
Ajoittain
21. päivästä klo 04 UTC - 21. päivään klo 08 UTC
Näkyvyys: 0200 m
100 ft:n korkeudessa
sumua
Tulossa
21. päivästä klo 08 UTC - 21. päivään klo 10 UTC
Näkyvyys 10 km tai enemmän

TAF: EBAW 210210Z 2103/2112 12002KT 2000 BR NSC PROB40 TEMPO 2104/2108 0200 FG VV001 BECMG 2108/2110 9999 NSW

Säähavainnot ja -ennusteet yli 4000 lentoasemalta (METAR- ja TAF-raportit).

Käytössä olevat sääasemat on merkitty karttaan keltaisilla ja punaisilla pisteillä.

Aseta hiiri pisteen päälle nähdäksesi sääaseman nimen.

Klikkaa sitten nähdäksesi säähavainnot ja -ennusteet.

Kartan vaihtaminen: klikkaa mustalla rastilla varustettuja vihreitä pisteitä, niin voit zoomata sisään; viivalla varustettua vihreää pistettä, niin voit zoomata ulos tai vihreitä nuolia, niin pääset viereisille kartoille.


METAR-TAF: